Terminal Aerodrome Forecast
Issued by NWS

Home | Current Version | Previous Version | Text Only | Print | Product List | Glossary On
Versions: 1 2 3 4 5 6 7 8 9 10 11 12 13 14 15 16 17 18 19 20 21 22
000
FTUS45 KGGW 020500
TAFOLF
TAF
KOLF 020537Z 0206/0306 28018KT P6SM SCT150
     FM021200 32016G25KT P6SM VCSH BKN025
     FM030000 33012KT P6SM BKN130
     FM030300 33008KT P6SM BKN140=

USA.gov is the U.S. government's official web portal to all federal, state and local government web resources and services.